Terminal Aerodrome Forecast
Issued by NWS

Home | Current Version | Previous Version | Text Only | Print | Product List | Glossary On
Versions: 1 2 3 4 5 6 7 8 9 10 11 12 13 14 15 16 17 18 19 20
000
FTUS41 KGYX 211939 AAA
TAFAUG
TAF AMD
KAUG 211939Z 2120/2218 03008KT 5SM -RA OVC010
     FM220100 05008KT 2SM RA BR OVC006
     FM220900 01014G24KT 4SM -RA BR OVC003=

USA.gov is the U.S. government's official web portal to all federal, state and local government web resources and services.